Meteo Giornale » Osservazioni meteo Emirati Arabi Uniti » Abu Dhabi Bateen
ore: 07:30 - Osservazioni Meteo Abu Dhabi Bateen
Lat. 24° 26' N Lon. 54° 28' E Alt. 5 metri s.l.m.
33 °C
Foschia
Temp. 24 Ore
33 °C
45 °C
Nord
5.5 Km/h
Dew point 29 °C
Umidità 79 %
Visibilità 3 Km
Il sole sorge alle ore 06:03
Il sole tramonta alle ore 18:40
| Data e Ora | Cielo e Fenomeni | T °C | DP °C | Um. % | Pres. hPa | Vis. km | Vento km/h | |
|---|---|---|---|---|---|---|---|---|
| Oggi h: 07:30 | Foschia | 33 | 29 | 79 | 1000 | 3 | N 5.5 | |
| Oggi h: 07:00 | Foschia | 33 | 29 | 79 | 1000 | 3 | E 7.4 | |
| Oggi h: 06:30 | Foschia | 33 | 29 | 79 | 1000 | 3 | N 5.5 | |
| Oggi h: 06:00 | Foschia | 33 | 30 | 84 | 999 | 3 | N 5.5 | |
| Oggi h: 05:30 | Foschia | 33 | 30 | 84 | 1000 | 4 | N 3.7 | |
| Oggi h: 05:00 | Foschia | 33 | 30 | 84 | 999 | 4 | E 7.4 | |
| Oggi h: 04:30 | Foschia | 33 | 30 | 84 | 999 | 4 | N 5.5 | |
| Oggi h: 04:00 | Foschia | 33 | 30 | 84 | 999 | 4 | N 5.5 | |
| Oggi h: 03:00 | Foschia | 33 | 30 | 84 | 999 | 4 | N 5.5 | |
| Oggi h: 02:30 | Foschia | 34 | 30 | 79 | 999 | 5 | N 5.5 | |
| Oggi h: 02:00 | Foschia | 34 | 30 | 79 | 999 | 5 | N 5.5 | |
| Oggi h: 01:30 | Foschia | 34 | 29 | 75 | 999 | 5 | NE 7.4 | |
| Oggi h: 01:00 | Foschia | 34 | 30 | 79 | 999 | 5 | N 5.5 | |
| Oggi h: 00:30 | Foschia | 34 | 30 | 79 | 999 | 5 | N/NE 7.4 | |
| Oggi h: 00:00 | Foschia | 34 | 29 | 75 | 999 | 5 | N 3.7 | |
| Ieri h: 23:30 | Foschia | 34 | 29 | 75 | 1000 | 5 | N 3.7 | |
| Ieri h: 23:00 | Foschia | 35 | 29 | 71 | 1000 | 5 | N 3.7 | |
| Ieri h: 22:30 | Foschia | 35 | 29 | 71 | 1000 | 5 | N 5.5 | |
| Ieri h: 22:00 | Foschia | 35 | 29 | 71 | 1000 | 5 | N 5.5 | |
| Ieri h: 21:30 | Foschia | 35 | 29 | 71 | 1000 | 5 | N 5.5 | |
| Ieri h: 21:00 | Foschia | 35 | 29 | 71 | 999 | 5 | N 5.5 | |
| Ieri h: 20:30 | Foschia | 35 | 29 | 71 | 999 | 5 | N 3.7 | |
| Ieri h: 20:00 | Sereno | 36 | 29 | 67 | 999 | 6 | N/NE 7.4 | |
| Ieri h: 19:30 | Sereno | 36 | 28 | 63 | 999 | 7 | N 7.4 | |
| Ieri h: 19:00 | Sereno | 36 | 28 | 63 | 999 | 7 | N 9.3 | |
| Ieri h: 18:30 | Sereno | 37 | 28 | 60 | 999 | 7 | N 11.1 | |
| Ieri h: 18:00 | Sereno | 38 | 27 | 53 | 999 | 8 | N/NO 13 | |
| Ieri h: 17:30 | Sereno | 39 | 24 | 42 | 998 | 8 | N 13 | |
| Ieri h: 17:00 | Sereno | 39 | 27 | 50 | 998 | 8 | N/NO 16.7 | |
| Ieri h: 16:30 | Sereno | 40 | 25 | 42 | 998 | 10 | N/NO 13 | |
| Ieri h: 16:00 | Sereno | 41 | 21 | 31 | 999 | 10 | N/NO 16.7 | |
| Ieri h: 15:30 | Sereno | 41 | 17 | 24 | 999 | 10 | N/NO 18.5 | |
| Ieri h: 15:00 | Sereno | 40 | 21 | 33 | 999 | 10 | N/NO 18.5 | |
| Ieri h: 14:30 | Sereno | 43 | 14 | 18 | 1000 | 10 | N/NO 18.5 | |
| Ieri h: 14:00 | Sereno | 45 | 10 | 12 | 1000 | 10 | N/NO 20.3 | |
| Ieri h: 13:30 | Sereno | 44 | 9 | 12 | 1000 | 10 | N 14.8 | |
| Ieri h: 13:00 | Sereno | 45 | 8 | 11 | 1000 | 10 | O 9.3 | |
| Ieri h: 12:30 | Sereno | 44 | 8 | 11 | 1001 | 10 | N 7.4 | |
| Ieri h: 12:00 | Sereno | 43 | 10 | 14 | 1001 | 10 | SO 9.3 | |
| Ieri h: 11:30 | Sereno | 42 | 12 | 17 | 1001 | 10 | S/SO 9.3 | |
| Ieri h: 11:00 | Sereno | 41 | 11 | 16 | 1002 | 10 | S 11.1 | |
| Ieri h: 10:30 | Sereno | 40 | 12 | 19 | 1002 | 10 | S 9.3 | |
| Ieri h: 10:00 | Sereno | 38 | 13 | 22 | 1002 | 10 | S/SE 14.8 | |
| Ieri h: 09:30 | Sereno | 37 | 13 | 23 | 1002 | 10 | S/SE 13 | |
| Ieri h: 09:00 | Sereno | 37 | 14 | 25 | 1002 | 10 | S/SE 9.3 | |
| Ieri h: 08:30 | Sereno | 35 | 15 | 30 | 1002 | 10 | S/SE 11.1 | |
| Ieri h: 08:00 | Sereno | 35 | 16 | 32 | 1002 | 10 | S/SE 11.1 | |



